sensor_id;sensor_type;location;lat;lon;timestamp;P1;durP1;ratioP1;P2;durP2;ratioP2
27367;SDS011;14839;48.106;11.618;2022-08-19T04:02:09;3.47;;;2.47;;
27367;SDS011;14839;48.106;11.618;2022-08-19T04:04:37;3.27;;;2.97;;
27367;SDS011;14839;48.106;11.618;2022-08-19T04:07:03;2.80;;;2.60;;
27367;SDS011;14839;48.106;11.618;2022-08-19T04:09:45;3.93;;;2.90;;
27367;SDS011;14839;48.106;11.618;2022-08-19T04:12:11;3.33;;;2.77;;
27367;SDS011;14839;48.106;11.618;2022-08-19T04:14:36;4.03;;;3.30;;
27367;SDS011;14839;48.106;11.618;2022-08-19T04:17:02;4.67;;;2.83;;
27367;SDS011;14839;48.106;11.618;2022-08-19T04:19:29;6.17;;;3.37;;
27367;SDS011;14839;48.106;11.618;2022-08-19T04:21:56;4.00;;;2.70;;
27367;SDS011;14839;48.106;11.618;2022-08-19T04:24:23;3.67;;;2.83;;
27367;SDS011;14839;48.106;11.618;2022-08-19T04:26:49;3.67;;;2.80;;
27367;SDS011;14839;48.106;11.618;2022-08-19T04:29:17;4.63;;;2.97;;
27367;SDS011;14839;48.106;11.618;2022-08-19T04:31:46;2.80;;;2.30;;
27367;SDS011;14839;48.106;11.618;2022-08-19T04:34:14;4.20;;;2.90;;
27367;SDS011;14839;48.106;11.618;2022-08-19T04:36:42;3.23;;;2.50;;
27367;SDS011;14839;48.106;11.618;2022-08-19T04:39:14;3.83;;;2.63;;
27367;SDS011;14839;48.106;11.618;2022-08-19T04:41:42;2.90;;;2.13;;
27367;SDS011;14839;48.106;11.618;2022-08-19T04:44:27;3.80;;;2.83;;
27367;SDS011;14839;48.106;11.618;2022-08-19T04:46:55;3.33;;;2.67;;
27367;SDS011;14839;48.106;11.618;2022-08-19T04:49:22;3.73;;;2.70;;
27367;SDS011;14839;48.106;11.618;2022-08-19T04:51:49;2.97;;;2.50;;
27367;SDS011;14839;48.106;11.618;2022-08-19T04:54:19;5.27;;;2.77;;
27367;SDS011;14839;48.106;11.618;2022-08-19T04:56:47;4.23;;;2.83;;
27367;SDS011;14839;48.106;11.618;2022-08-19T04:59:17;3.70;;;2.53;;
27367;SDS011;14839;48.106;11.618;2022-08-19T05:01:44;4.17;;;2.63;;
27367;SDS011;14839;48.106;11.618;2022-08-19T05:04:13;3.67;;;2.80;;
27367;SDS011;14839;48.106;11.618;2022-08-19T05:06:39;4.87;;;2.47;;
27367;SDS011;14839;48.106;11.618;2022-08-19T05:09:04;3.70;;;2.57;;
27367;SDS011;14839;48.106;11.618;2022-08-19T05:11:32;2.90;;;2.57;;
27367;SDS011;14839;48.106;11.618;2022-08-19T05:13:59;2.80;;;2.40;;
27367;SDS011;14839;48.106;11.618;2022-08-19T05:16:25;3.43;;;2.20;;
27367;SDS011;14839;48.106;11.618;2022-08-19T05:18:51;2.70;;;2.30;;
27367;SDS011;14839;48.106;11.618;2022-08-19T05:21:36;3.50;;;2.57;;
27367;SDS011;14839;48.106;11.618;2022-08-19T05:24:23;2.80;;;2.43;;
27367;SDS011;14839;48.106;11.618;2022-08-19T05:26:49;2.90;;;2.57;;
27367;SDS011;14839;48.106;11.618;2022-08-19T05:29:17;2.73;;;2.40;;
27367;SDS011;14839;48.106;11.618;2022-08-19T05:31:44;3.43;;;2.47;;
27367;SDS011;14839;48.106;11.618;2022-08-19T05:34:14;3.97;;;2.43;;
27367;SDS011;14839;48.106;11.618;2022-08-19T05:36:42;7.43;;;3.00;;
27367;SDS011;14839;48.106;11.618;2022-08-19T05:39:10;3.10;;;2.77;;
27367;SDS011;14839;48.106;11.618;2022-08-19T05:41:44;3.13;;;2.77;;
27367;SDS011;14839;48.106;11.618;2022-08-19T05:44:12;3.73;;;2.70;;
27367;SDS011;14839;48.106;11.618;2022-08-19T05:46:39;3.53;;;2.40;;
27367;SDS011;14839;48.106;11.618;2022-08-19T05:49:07;3.57;;;2.67;;
27367;SDS011;14839;48.106;11.618;2022-08-19T05:51:34;3.43;;;3.00;;
27367;SDS011;14839;48.106;11.618;2022-08-19T05:54:02;3.53;;;2.63;;
27367;SDS011;14839;48.106;11.618;2022-08-19T05:56:30;4.10;;;2.80;;
27367;SDS011;14839;48.106;11.618;2022-08-19T05:58:57;4.90;;;3.10;;
27367;SDS011;14839;48.106;11.618;2022-08-19T06:01:24;5.57;;;3.40;;
27367;SDS011;14839;48.106;11.618;2022-08-19T06:03:50;5.20;;;3.47;;
27367;SDS011;14839;48.106;11.618;2022-08-19T06:06:16;4.97;;;3.60;;
27367;SDS011;14839;48.106;11.618;2022-08-19T06:08:42;5.00;;;3.73;;
27367;SDS011;14839;48.106;11.618;2022-08-19T06:11:18;6.60;;;4.80;;
27367;SDS011;14839;48.106;11.618;2022-08-19T06:13:48;7.00;;;5.03;;
27367;SDS011;14839;48.106;11.618;2022-08-19T06:16:17;5.93;;;4.33;;
27367;SDS011;14839;48.106;11.618;2022-08-19T06:18:51;8.87;;;5.07;;
27367;SDS011;14839;48.106;11.618;2022-08-19T06:21:21;9.03;;;5.37;;
27367;SDS011;14839;48.106;11.618;2022-08-19T06:23:48;7.57;;;5.37;;
27367;SDS011;14839;48.106;11.618;2022-08-19T06:26:14;8.53;;;5.67;;
27367;SDS011;14839;48.106;11.618;2022-08-19T06:28:41;8.63;;;5.10;;
27367;SDS011;14839;48.106;11.618;2022-08-19T06:31:11;7.97;;;5.57;;
27367;SDS011;14839;48.106;11.618;2022-08-19T06:33:41;9.07;;;5.50;;
27367;SDS011;14839;48.106;11.618;2022-08-19T06:36:15;7.27;;;5.03;;
27367;SDS011;14839;48.106;11.618;2022-08-19T06:38:56;8.17;;;5.53;;
27367;SDS011;14839;48.106;11.618;2022-08-19T06:41:24;8.40;;;5.27;;
27367;SDS011;14839;48.106;11.618;2022-08-19T06:43:50;9.30;;;5.23;;
27367;SDS011;14839;48.106;11.618;2022-08-19T06:46:17;8.40;;;6.40;;
27367;SDS011;14839;48.106;11.618;2022-08-19T06:48:44;6.50;;;5.20;;
27367;SDS011;14839;48.106;11.618;2022-08-19T06:51:10;7.50;;;5.23;;
27367;SDS011;14839;48.106;11.618;2022-08-19T06:53:37;8.27;;;5.63;;
27367;SDS011;14839;48.106;11.618;2022-08-19T06:56:04;6.73;;;5.60;;
27367;SDS011;14839;48.106;11.618;2022-08-19T06:58:30;7.57;;;5.47;;
27367;SDS011;14839;48.106;11.618;2022-08-19T07:01:00;10.20;;;5.80;;
27367;SDS011;14839;48.106;11.618;2022-08-19T07:03:29;7.70;;;5.47;;
27367;SDS011;14839;48.106;11.618;2022-08-19T07:05:56;11.53;;;6.80;;
27367;SDS011;14839;48.106;11.618;2022-08-19T07:08:22;8.80;;;6.43;;
27367;SDS011;14839;48.106;11.618;2022-08-19T07:10:47;10.60;;;6.23;;
27367;SDS011;14839;48.106;11.618;2022-08-19T07:13:14;10.40;;;6.80;;
27367;SDS011;14839;48.106;11.618;2022-08-19T07:15:40;11.17;;;7.60;;
27367;SDS011;14839;48.106;11.618;2022-08-19T07:18:05;10.13;;;6.87;;
27367;SDS011;14839;48.106;11.618;2022-08-19T07:20:31;9.30;;;7.60;;
27367;SDS011;14839;48.106;11.618;2022-08-19T07:22:57;8.70;;;6.87;;
27367;SDS011;14839;48.106;11.618;2022-08-19T07:25:23;12.20;;;8.03;;
27367;SDS011;14839;48.106;11.618;2022-08-19T07:27:49;12.30;;;7.70;;
27367;SDS011;14839;48.106;11.618;2022-08-19T07:30:15;10.80;;;7.03;;
27367;SDS011;14839;48.106;11.618;2022-08-19T07:32:41;10.73;;;8.43;;
27367;SDS011;14839;48.106;11.618;2022-08-19T07:35:07;10.77;;;8.00;;
27367;SDS011;14839;48.106;11.618;2022-08-19T07:37:34;13.13;;;8.63;;
27367;SDS011;14839;48.106;11.618;2022-08-19T07:40:02;12.80;;;7.43;;
27367;SDS011;14839;48.106;11.618;2022-08-19T07:42:29;10.37;;;8.03;;
27367;SDS011;14839;48.106;11.618;2022-08-19T07:44:55;10.53;;;7.10;;
27367;SDS011;14839;48.106;11.618;2022-08-19T07:47:20;13.07;;;8.23;;
27367;SDS011;14839;48.106;11.618;2022-08-19T07:49:46;11.67;;;6.87;;
27367;SDS011;14839;48.106;11.618;2022-08-19T07:52:12;11.40;;;7.77;;
27367;SDS011;14839;48.106;11.618;2022-08-19T07:54:38;12.23;;;8.17;;
27367;SDS011;14839;48.106;11.618;2022-08-19T07:57:05;11.03;;;8.03;;
27367;SDS011;14839;48.106;11.618;2022-08-19T07:59:31;11.90;;;8.07;;
27367;SDS011;14839;48.106;11.618;2022-08-19T08:01:58;10.77;;;8.40;;
27367;SDS011;14839;48.106;11.618;2022-08-19T08:04:25;11.57;;;8.03;;
27367;SDS011;14839;48.106;11.618;2022-08-19T08:07:10;14.53;;;8.03;;
27367;SDS011;14839;48.106;11.618;2022-08-19T08:09:54;13.03;;;9.23;;
27367;SDS011;14839;48.106;11.618;2022-08-19T08:12:24;14.03;;;8.93;;
27367;SDS011;14839;48.106;11.618;2022-08-19T08:14:57;11.60;;;8.47;;
27367;SDS011;14839;48.106;11.618;2022-08-19T08:17:27;13.77;;;9.00;;
27367;SDS011;14839;48.106;11.618;2022-08-19T08:19:54;12.40;;;8.37;;
27367;SDS011;14839;48.106;11.618;2022-08-19T08:22:20;9.10;;;7.63;;
27367;SDS011;14839;48.106;11.618;2022-08-19T08:25:10;12.20;;;8.53;;
27367;SDS011;14839;48.106;11.618;2022-08-19T08:27:38;13.13;;;8.20;;
27367;SDS011;14839;48.106;11.618;2022-08-19T08:30:06;10.87;;;8.03;;
27367;SDS011;14839;48.106;11.618;2022-08-19T08:32:34;11.07;;;8.10;;
27367;SDS011;14839;48.106;11.618;2022-08-19T08:35:04;12.50;;;8.47;;
27367;SDS011;14839;48.106;11.618;2022-08-19T08:37:32;14.40;;;9.30;;
27367;SDS011;14839;48.106;11.618;2022-08-19T08:39:58;10.90;;;8.53;;
27367;SDS011;14839;48.106;11.618;2022-08-19T08:42:27;13.10;;;8.63;;
27367;SDS011;14839;48.106;11.618;2022-08-19T08:45:12;14.63;;;8.67;;
27367;SDS011;14839;48.106;11.618;2022-08-19T08:47:41;12.97;;;8.33;;
27367;SDS011;14839;48.106;11.618;2022-08-19T08:50:26;11.13;;;8.10;;
27367;SDS011;14839;48.106;11.618;2022-08-19T08:52:53;11.23;;;8.43;;
27367;SDS011;14839;48.106;11.618;2022-08-19T08:55:23;14.17;;;8.67;;
27367;SDS011;14839;48.106;11.618;2022-08-19T08:58:03;12.57;;;8.57;;
27367;SDS011;14839;48.106;11.618;2022-08-19T09:00:38;12.93;;;8.20;;
27367;SDS011;14839;48.106;11.618;2022-08-19T09:03:10;10.23;;;8.57;;
27367;SDS011;14839;48.106;11.618;2022-08-19T09:08:33;12.33;;;8.37;;
27367;SDS011;14839;48.106;11.618;2022-08-19T09:11:03;12.50;;;7.77;;
27367;SDS011;14839;48.106;11.618;2022-08-19T09:16:33;14.93;;;9.23;;
27367;SDS011;14839;48.106;11.618;2022-08-19T09:19:04;11.77;;;8.07;;
27367;SDS011;14839;48.106;11.618;2022-08-19T09:21:31;12.97;;;8.27;;
27367;SDS011;14839;48.106;11.618;2022-08-19T09:23:57;11.83;;;8.47;;
27367;SDS011;14839;48.106;11.618;2022-08-19T09:26:23;11.73;;;8.60;;
27367;SDS011;14839;48.106;11.618;2022-08-19T09:28:50;15.60;;;9.57;;
27367;SDS011;14839;48.106;11.618;2022-08-19T09:31:21;11.73;;;8.37;;
27367;SDS011;14839;48.106;11.618;2022-08-19T09:33:49;14.40;;;9.10;;
27367;SDS011;14839;48.106;11.618;2022-08-19T09:36:16;13.70;;;9.07;;
27367;SDS011;14839;48.106;11.618;2022-08-19T09:38:44;12.50;;;8.83;;
27367;SDS011;14839;48.106;11.618;2022-08-19T09:41:14;13.30;;;8.50;;
27367;SDS011;14839;48.106;11.618;2022-08-19T09:43:43;11.70;;;8.40;;
27367;SDS011;14839;48.106;11.618;2022-08-19T09:46:10;12.07;;;8.67;;
27367;SDS011;14839;48.106;11.618;2022-08-19T09:48:37;12.23;;;7.43;;
27367;SDS011;14839;48.106;11.618;2022-08-19T09:51:07;10.23;;;7.93;;
27367;SDS011;14839;48.106;11.618;2022-08-19T09:53:35;13.33;;;7.87;;
27367;SDS011;14839;48.106;11.618;2022-08-19T09:56:02;13.10;;;7.97;;
27367;SDS011;14839;48.106;11.618;2022-08-19T09:58:29;10.47;;;7.43;;
27367;SDS011;14839;48.106;11.618;2022-08-19T10:00:55;11.50;;;7.70;;
27367;SDS011;14839;48.106;11.618;2022-08-19T10:03:21;9.37;;;7.13;;
27367;SDS011;14839;48.106;11.618;2022-08-19T10:05:48;11.33;;;7.27;;
27367;SDS011;14839;48.106;11.618;2022-08-19T10:08:15;9.07;;;6.80;;
27367;SDS011;14839;48.106;11.618;2022-08-19T10:10:42;7.97;;;6.00;;
27367;SDS011;14839;48.106;11.618;2022-08-19T10:13:10;10.50;;;6.90;;
27367;SDS011;14839;48.106;11.618;2022-08-19T10:15:37;7.60;;;6.07;;
27367;SDS011;14839;48.106;11.618;2022-08-19T10:18:05;7.93;;;5.90;;
27367;SDS011;14839;48.106;11.618;2022-08-19T10:20:31;9.40;;;6.80;;
27367;SDS011;14839;48.106;11.618;2022-08-19T10:22:57;8.20;;;6.03;;
27367;SDS011;14839;48.106;11.618;2022-08-19T10:25:24;8.85;;;5.90;;
27367;SDS011;14839;48.106;11.618;2022-08-19T10:27:51;10.30;;;6.38;;
27367;SDS011;14839;48.106;11.618;2022-08-19T10:30:17;8.63;;;6.72;;
27367;SDS011;14839;48.106;11.618;2022-08-19T10:32:43;8.93;;;6.30;;
27367;SDS011;14839;48.106;11.618;2022-08-19T10:35:11;9.40;;;6.65;;
27367;SDS011;14839;48.106;11.618;2022-08-19T10:37:38;7.90;;;6.15;;
27367;SDS011;14839;48.106;11.618;2022-08-19T10:40:07;10.90;;;6.28;;
27367;SDS011;14839;48.106;11.618;2022-08-19T10:42:35;12.50;;;6.32;;
27367;SDS011;14839;48.106;11.618;2022-08-19T10:45:01;9.90;;;6.35;;
27367;SDS011;14839;48.106;11.618;2022-08-19T10:47:28;7.50;;;5.85;;
27367;SDS011;14839;48.106;11.618;2022-08-19T10:49:53;8.95;;;6.78;;
27367;SDS011;14839;48.106;11.618;2022-08-19T10:52:42;8.35;;;5.55;;
27367;SDS011;14839;48.106;11.618;2022-08-19T10:55:10;6.07;;;5.30;;
27367;SDS011;14839;48.106;11.618;2022-08-19T10:57:55;7.97;;;5.57;;
27367;SDS011;14839;48.106;11.618;2022-08-19T11:00:21;7.00;;;5.30;;
27367;SDS011;14839;48.106;11.618;2022-08-19T11:02:48;7.10;;;5.60;;
27367;SDS011;14839;48.106;11.618;2022-08-19T11:05:14;7.10;;;4.83;;
27367;SDS011;14839;48.106;11.618;2022-08-19T11:07:40;6.30;;;4.45;;
27367;SDS011;14839;48.106;11.618;2022-08-19T11:10:06;7.55;;;4.28;;
27367;SDS011;14839;48.106;11.618;2022-08-19T11:12:36;6.72;;;4.45;;
27367;SDS011;14839;48.106;11.618;2022-08-19T11:15:04;5.47;;;4.03;;
27367;SDS011;14839;48.106;11.618;2022-08-19T11:17:33;4.72;;;4.13;;
27367;SDS011;14839;48.106;11.618;2022-08-19T11:19:58;5.13;;;4.23;;
27367;SDS011;14839;48.106;11.618;2022-08-19T11:22:28;5.15;;;3.85;;
27367;SDS011;14839;48.106;11.618;2022-08-19T11:24:53;3.88;;;3.47;;
27367;SDS011;14839;48.106;11.618;2022-08-19T11:27:20;4.53;;;3.65;;
27367;SDS011;14839;48.106;11.618;2022-08-19T11:29:45;4.33;;;3.47;;
27367;SDS011;14839;48.106;11.618;2022-08-19T11:32:11;4.55;;;3.80;;
27367;SDS011;14839;48.106;11.618;2022-08-19T11:34:39;3.78;;;3.38;;
27367;SDS011;14839;48.106;11.618;2022-08-19T11:37:05;4.38;;;3.08;;
27367;SDS011;14839;48.106;11.618;2022-08-19T11:39:32;4.25;;;3.50;;
27367;SDS011;14839;48.106;11.618;2022-08-19T11:41:58;6.13;;;3.40;;
27367;SDS011;14839;48.106;11.618;2022-08-19T11:44:26;4.88;;;4.18;;
27367;SDS011;14839;48.106;11.618;2022-08-19T11:46:55;6.03;;;4.50;;
27367;SDS011;14839;48.106;11.618;2022-08-19T11:49:21;5.38;;;4.43;;
27367;SDS011;14839;48.106;11.618;2022-08-19T11:51:47;4.70;;;4.20;;
27367;SDS011;14839;48.106;11.618;2022-08-19T11:54:15;6.73;;;4.53;;
27367;SDS011;14839;48.106;11.618;2022-08-19T11:56:42;5.20;;;4.43;;
27367;SDS011;14839;48.106;11.618;2022-08-19T11:59:08;5.70;;;3.53;;
27367;SDS011;14839;48.106;11.618;2022-08-19T12:01:35;3.20;;;2.47;;
27367;SDS011;14839;48.106;11.618;2022-08-19T12:04:01;4.40;;;2.88;;
27367;SDS011;14839;48.106;11.618;2022-08-19T12:06:30;3.23;;;2.70;;
27367;SDS011;14839;48.106;11.618;2022-08-19T12:08:59;2.90;;;2.60;;
27367;SDS011;14839;48.106;11.618;2022-08-19T12:11:28;3.65;;;3.10;;
27367;SDS011;14839;48.106;11.618;2022-08-19T12:13:53;3.90;;;3.30;;
27367;SDS011;14839;48.106;11.618;2022-08-19T12:16:21;3.43;;;2.50;;
27367;SDS011;14839;48.106;11.618;2022-08-19T12:18:48;3.60;;;2.57;;
27367;SDS011;14839;48.106;11.618;2022-08-19T12:21:16;2.43;;;1.73;;
27367;SDS011;14839;48.106;11.618;2022-08-19T12:23:46;2.50;;;1.80;;
27367;SDS011;14839;48.106;11.618;2022-08-19T12:26:12;1.25;;;1.10;;
27367;SDS011;14839;48.106;11.618;2022-08-19T12:28:38;0.80;;;0.80;;
27367;SDS011;14839;48.106;11.618;2022-08-19T12:31:03;0.90;;;0.83;;
27367;SDS011;14839;48.106;11.618;2022-08-19T12:33:30;0.90;;;0.73;;
27367;SDS011;14839;48.106;11.618;2022-08-19T12:35:59;1.07;;;0.97;;
27367;SDS011;14839;48.106;11.618;2022-08-19T12:38:27;1.23;;;0.70;;
27367;SDS011;14839;48.106;11.618;2022-08-19T12:40:53;0.90;;;0.80;;
27367;SDS011;14839;48.106;11.618;2022-08-19T12:43:19;1.10;;;0.98;;
27367;SDS011;14839;48.106;11.618;2022-08-19T12:45:45;0.80;;;0.70;;
27367;SDS011;14839;48.106;11.618;2022-08-19T12:48:11;0.88;;;0.80;;
27367;SDS011;14839;48.106;11.618;2022-08-19T12:50:41;0.80;;;0.80;;
27367;SDS011;14839;48.106;11.618;2022-08-19T12:53:10;0.73;;;0.73;;
27367;SDS011;14839;48.106;11.618;2022-08-19T12:55:36;0.68;;;0.60;;
27367;SDS011;14839;48.106;11.618;2022-08-19T12:58:01;0.70;;;0.70;;
27367;SDS011;14839;48.106;11.618;2022-08-19T13:00:27;0.70;;;0.70;;
27367;SDS011;14839;48.106;11.618;2022-08-19T13:02:53;1.10;;;0.80;;
27367;SDS011;14839;48.106;11.618;2022-08-19T13:05:21;1.13;;;0.70;;
27367;SDS011;14839;48.106;11.618;2022-08-19T13:07:49;0.90;;;0.80;;
27367;SDS011;14839;48.106;11.618;2022-08-19T13:10:17;0.57;;;0.52;;
27367;SDS011;14839;48.106;11.618;2022-08-19T13:12:45;0.70;;;0.60;;
27367;SDS011;14839;48.106;11.618;2022-08-19T13:15:13;1.40;;;0.60;;
27367;SDS011;14839;48.106;11.618;2022-08-19T13:17:39;0.50;;;0.50;;
27367;SDS011;14839;48.106;11.618;2022-08-19T13:20:07;1.10;;;0.65;;
27367;SDS011;14839;48.106;11.618;2022-08-19T13:22:34;0.93;;;0.82;;
27367;SDS011;14839;48.106;11.618;2022-08-19T13:25:04;1.13;;;0.73;;
27367;SDS011;14839;48.106;11.618;2022-08-19T13:27:31;0.77;;;0.77;;
27367;SDS011;14839;48.106;11.618;2022-08-19T13:29:56;1.10;;;1.00;;
27367;SDS011;14839;48.106;11.618;2022-08-19T13:32:41;0.70;;;0.70;;
27367;SDS011;14839;48.106;11.618;2022-08-19T13:35:25;0.90;;;0.75;;
27367;SDS011;14839;48.106;11.618;2022-08-19T13:37:50;1.10;;;0.70;;
27367;SDS011;14839;48.106;11.618;2022-08-19T13:40:20;1.02;;;0.88;;
27367;SDS011;14839;48.106;11.618;2022-08-19T13:42:49;1.00;;;0.80;;
27367;SDS011;14839;48.106;11.618;2022-08-19T13:45:17;1.38;;;1.10;;
27367;SDS011;14839;48.106;11.618;2022-08-19T13:47:48;0.68;;;0.65;;
27367;SDS011;14839;48.106;11.618;2022-08-19T13:50:17;1.13;;;0.68;;
27367;SDS011;14839;48.106;11.618;2022-08-19T13:52:45;1.00;;;0.90;;
27367;SDS011;14839;48.106;11.618;2022-08-19T13:55:12;1.33;;;0.82;;
27367;SDS011;14839;48.106;11.618;2022-08-19T13:57:39;0.80;;;0.80;;
27367;SDS011;14839;48.106;11.618;2022-08-19T14:00:07;0.93;;;0.82;;
27367;SDS011;14839;48.106;11.618;2022-08-19T14:02:35;1.30;;;1.10;;
27367;SDS011;14839;48.106;11.618;2022-08-19T14:05:02;1.20;;;1.10;;
27367;SDS011;14839;48.106;11.618;2022-08-19T14:07:29;1.00;;;0.77;;
27367;SDS011;14839;48.106;11.618;2022-08-19T14:09:55;1.00;;;0.90;;
27367;SDS011;14839;48.106;11.618;2022-08-19T14:12:21;1.27;;;1.15;;
27367;SDS011;14839;48.106;11.618;2022-08-19T14:14:47;1.42;;;1.08;;
27367;SDS011;14839;48.106;11.618;2022-08-19T14:17:13;2.00;;;1.17;;
27367;SDS011;14839;48.106;11.618;2022-08-19T14:19:39;1.95;;;1.25;;
27367;SDS011;14839;48.106;11.618;2022-08-19T14:22:05;1.60;;;1.50;;
27367;SDS011;14839;48.106;11.618;2022-08-19T14:24:31;1.30;;;0.93;;
27367;SDS011;14839;48.106;11.618;2022-08-19T14:26:59;1.23;;;1.13;;
27367;SDS011;14839;48.106;11.618;2022-08-19T14:29:25;1.45;;;1.35;;
27367;SDS011;14839;48.106;11.618;2022-08-19T14:31:52;1.30;;;1.15;;
27367;SDS011;14839;48.106;11.618;2022-08-19T14:34:18;1.58;;;1.45;;
27367;SDS011;14839;48.106;11.618;2022-08-19T14:36:43;1.63;;;1.33;;
27367;SDS011;14839;48.106;11.618;2022-08-19T14:39:10;1.27;;;1.17;;
27367;SDS011;14839;48.106;11.618;2022-08-19T14:41:36;2.55;;;1.80;;
27367;SDS011;14839;48.106;11.618;2022-08-19T14:44:06;1.67;;;1.45;;
27367;SDS011;14839;48.106;11.618;2022-08-19T14:46:32;3.25;;;1.52;;
27367;SDS011;14839;48.106;11.618;2022-08-19T14:48:58;1.63;;;1.40;;
27367;SDS011;14839;48.106;11.618;2022-08-19T14:51:24;1.40;;;1.30;;
27367;SDS011;14839;48.106;11.618;2022-08-19T14:53:52;1.10;;;1.10;;
27367;SDS011;14839;48.106;11.618;2022-08-19T14:56:20;1.95;;;1.60;;
27367;SDS011;14839;48.106;11.618;2022-08-19T14:58:48;1.23;;;1.13;;
27367;SDS011;14839;48.106;11.618;2022-08-19T15:01:17;1.60;;;1.07;;
27367;SDS011;14839;48.106;11.618;2022-08-19T15:03:47;1.45;;;1.30;;
27367;SDS011;14839;48.106;11.618;2022-08-19T15:06:13;1.92;;;1.40;;
27367;SDS011;14839;48.106;11.618;2022-08-19T15:08:40;1.15;;;0.80;;
27367;SDS011;14839;48.106;11.618;2022-08-19T15:11:08;1.10;;;1.00;;
27367;SDS011;14839;48.106;11.618;2022-08-19T15:13:39;1.25;;;1.15;;
27367;SDS011;14839;48.106;11.618;2022-08-19T15:16:06;0.95;;;0.85;;
27367;SDS011;14839;48.106;11.618;2022-08-19T15:18:32;1.83;;;1.33;;
27367;SDS011;14839;48.106;11.618;2022-08-19T15:20:59;0.93;;;0.90;;
27367;SDS011;14839;48.106;11.618;2022-08-19T15:23:25;1.50;;;1.20;;
27367;SDS011;14839;48.106;11.618;2022-08-19T15:25:51;1.10;;;1.00;;
27367;SDS011;14839;48.106;11.618;2022-08-19T15:28:19;3.50;;;1.20;;
27367;SDS011;14839;48.106;11.618;2022-08-19T15:30:46;1.80;;;1.40;;
27367;SDS011;14839;48.106;11.618;2022-08-19T15:33:11;2.57;;;1.40;;
27367;SDS011;14839;48.106;11.618;2022-08-19T15:35:42;3.30;;;1.42;;
27367;SDS011;14839;48.106;11.618;2022-08-19T15:38:08;2.23;;;1.70;;
27367;SDS011;14839;48.106;11.618;2022-08-19T15:40:34;1.55;;;1.30;;
27367;SDS011;14839;48.106;11.618;2022-08-19T15:43:00;1.53;;;1.30;;
27367;SDS011;14839;48.106;11.618;2022-08-19T15:45:25;1.40;;;1.30;;
27367;SDS011;14839;48.106;11.618;2022-08-19T15:47:57;1.27;;;1.10;;
27367;SDS011;14839;48.106;11.618;2022-08-19T15:50:28;3.33;;;1.53;;
27367;SDS011;14839;48.106;11.618;2022-08-19T15:53:00;1.70;;;1.60;;
27367;SDS011;14839;48.106;11.618;2022-08-19T15:55:30;2.30;;;1.77;;
27367;SDS011;14839;48.106;11.618;2022-08-19T15:57:58;2.73;;;2.00;;
27367;SDS011;14839;48.106;11.618;2022-08-19T16:00:53;2.57;;;2.37;;
27367;SDS011;14839;48.106;11.618;2022-08-19T16:03:37;2.93;;;2.00;;
27367;SDS011;14839;48.106;11.618;2022-08-19T16:06:21;2.60;;;1.97;;
27367;SDS011;14839;48.106;11.618;2022-08-19T16:08:57;3.33;;;2.37;;
27367;SDS011;14839;48.106;11.618;2022-08-19T16:11:26;3.30;;;2.60;;
27367;SDS011;14839;48.106;11.618;2022-08-19T16:13:55;3.33;;;2.70;;
27367;SDS011;14839;48.106;11.618;2022-08-19T16:16:29;2.80;;;2.20;;
27367;SDS011;14839;48.106;11.618;2022-08-19T16:18:57;3.00;;;2.47;;
27367;SDS011;14839;48.106;11.618;2022-08-19T16:21:25;2.60;;;2.40;;
27367;SDS011;14839;48.106;11.618;2022-08-19T16:23:56;4.10;;;2.43;;
27367;SDS011;14839;48.106;11.618;2022-08-19T16:26:21;2.65;;;2.45;;
27367;SDS011;14839;48.106;11.618;2022-08-19T16:28:49;1.90;;;1.80;;
27367;SDS011;14839;48.106;11.618;2022-08-19T16:31:14;2.15;;;1.90;;
27367;SDS011;14839;48.106;11.618;2022-08-19T16:33:40;2.30;;;2.10;;
27367;SDS011;14839;48.106;11.618;2022-08-19T16:36:06;2.33;;;2.10;;
27367;SDS011;14839;48.106;11.618;2022-08-19T16:38:32;1.63;;;1.53;;
27367;SDS011;14839;48.106;11.618;2022-08-19T16:40:59;1.87;;;1.77;;
27367;SDS011;14839;48.106;11.618;2022-08-19T16:43:26;1.90;;;1.70;;
27367;SDS011;14839;48.106;11.618;2022-08-19T16:45:53;1.63;;;1.40;;
27367;SDS011;14839;48.106;11.618;2022-08-19T16:48:19;1.97;;;1.30;;
27367;SDS011;14839;48.106;11.618;2022-08-19T16:50:50;1.40;;;1.13;;
27367;SDS011;14839;48.106;11.618;2022-08-19T16:53:19;1.20;;;1.10;;
27367;SDS011;14839;48.106;11.618;2022-08-19T16:55:46;1.80;;;1.40;;
27367;SDS011;14839;48.106;11.618;2022-08-19T16:58:15;1.90;;;1.60;;
27367;SDS011;14839;48.106;11.618;2022-08-19T17:00:42;1.80;;;1.70;;
27367;SDS011;14839;48.106;11.618;2022-08-19T17:03:08;2.13;;;1.60;;
27367;SDS011;14839;48.106;11.618;2022-08-19T17:05:45;1.53;;;1.43;;
27367;SDS011;14839;48.106;11.618;2022-08-19T17:08:13;3.10;;;2.10;;
27367;SDS011;14839;48.106;11.618;2022-08-19T17:10:41;2.00;;;1.60;;
27367;SDS011;14839;48.106;11.618;2022-08-19T17:13:07;2.50;;;1.77;;
27367;SDS011;14839;48.106;11.618;2022-08-19T17:15:32;2.20;;;1.83;;
27367;SDS011;14839;48.106;11.618;2022-08-19T17:17:59;2.07;;;1.70;;
27367;SDS011;14839;48.106;11.618;2022-08-19T17:20:27;2.03;;;1.70;;
27367;SDS011;14839;48.106;11.618;2022-08-19T17:22:53;2.20;;;1.83;;
27367;SDS011;14839;48.106;11.618;2022-08-19T17:25:20;2.30;;;2.10;;
27367;SDS011;14839;48.106;11.618;2022-08-19T17:27:47;2.10;;;1.90;;
27367;SDS011;14839;48.106;11.618;2022-08-19T17:30:12;2.10;;;1.70;;
27367;SDS011;14839;48.106;11.618;2022-08-19T17:32:38;1.73;;;1.63;;
27367;SDS011;14839;48.106;11.618;2022-08-19T17:35:04;2.47;;;1.87;;
27367;SDS011;14839;48.106;11.618;2022-08-19T17:37:31;2.13;;;1.87;;
27367;SDS011;14839;48.106;11.618;2022-08-19T17:40:00;2.23;;;1.90;;
27367;SDS011;14839;48.106;11.618;2022-08-19T17:42:31;1.73;;;1.53;;
27367;SDS011;14839;48.106;11.618;2022-08-19T17:44:56;2.83;;;2.20;;
27367;SDS011;14839;48.106;11.618;2022-08-19T17:47:23;2.37;;;1.50;;
27367;SDS011;14839;48.106;11.618;2022-08-19T17:49:49;2.03;;;1.83;;
27367;SDS011;14839;48.106;11.618;2022-08-19T17:52:16;1.90;;;1.70;;
27367;SDS011;14839;48.106;11.618;2022-08-19T17:54:42;2.00;;;1.60;;
27367;SDS011;14839;48.106;11.618;2022-08-19T17:57:08;2.30;;;2.00;;
27367;SDS011;14839;48.106;11.618;2022-08-19T17:59:34;2.17;;;1.97;;
27367;SDS011;14839;48.106;11.618;2022-08-19T18:02:01;2.40;;;1.80;;
27367;SDS011;14839;48.106;11.618;2022-08-19T18:04:28;2.00;;;1.80;;
27367;SDS011;14839;48.106;11.618;2022-08-19T18:06:54;2.50;;;1.80;;
27367;SDS011;14839;48.106;11.618;2022-08-19T18:09:21;2.30;;;1.93;;
27367;SDS011;14839;48.106;11.618;2022-08-19T18:11:48;3.13;;;2.10;;
27367;SDS011;14839;48.106;11.618;2022-08-19T18:14:13;2.20;;;2.00;;
27367;SDS011;14839;48.106;11.618;2022-08-19T18:16:39;2.93;;;1.77;;
27367;SDS011;14839;48.106;11.618;2022-08-19T18:19:05;3.03;;;2.13;;
27367;SDS011;14839;48.106;11.618;2022-08-19T18:21:31;2.47;;;2.27;;
27367;SDS011;14839;48.106;11.618;2022-08-19T18:23:59;3.03;;;2.30;;
27367;SDS011;14839;48.106;11.618;2022-08-19T18:26:25;2.37;;;2.00;;
27367;SDS011;14839;48.106;11.618;2022-08-19T18:28:51;3.13;;;2.77;;
27367;SDS011;14839;48.106;11.618;2022-08-19T18:31:18;2.83;;;2.47;;
27367;SDS011;14839;48.106;11.618;2022-08-19T18:33:43;4.83;;;3.30;;
27367;SDS011;14839;48.106;11.618;2022-08-19T18:36:10;2.63;;;2.43;;
27367;SDS011;14839;48.106;11.618;2022-08-19T18:38:36;2.87;;;2.43;;
27367;SDS011;14839;48.106;11.618;2022-08-19T18:41:20;2.80;;;2.33;;
27367;SDS011;14839;48.106;11.618;2022-08-19T18:44:04;3.47;;;2.67;;